createdAt,value
2023-05-13T00:03:30.970Z,14.90
2023-05-13T00:07:37.673Z,14.80
2023-05-13T00:11:44.372Z,14.80
2023-05-13T00:15:51.312Z,14.80
2023-05-13T00:19:58.284Z,14.70
2023-05-13T00:24:05.752Z,15.50
2023-05-13T00:28:15.035Z,14.40
2023-05-13T00:32:21.783Z,14.30
2023-05-13T00:36:28.808Z,15.60
2023-05-13T00:40:39.601Z,14.10
2023-05-13T00:44:46.604Z,14.00
2023-05-13T00:48:53.446Z,13.90
2023-05-13T00:53:00.571Z,13.90
2023-05-13T00:57:07.502Z,13.90
2023-05-13T01:01:23.162Z,13.80
2023-05-13T01:06:08.948Z,13.60
2023-05-13T01:10:44.588Z,13.50
2023-05-13T01:15:06.710Z,13.50
2023-05-13T01:19:48.912Z,13.40
2023-05-13T01:23:56.044Z,13.30
2023-05-13T01:28:03.144Z,13.20
2023-05-13T01:32:11.310Z,13.10
2023-05-13T01:36:18.322Z,13.10
2023-05-13T01:44:37.636Z,13.00
2023-05-13T01:48:44.312Z,12.90
2023-05-13T01:52:51.102Z,12.90
2023-05-13T01:56:57.797Z,12.70
2023-05-13T02:01:04.532Z,12.70
2023-05-13T02:05:11.277Z,13.00
2023-05-13T02:09:18.072Z,12.50
2023-05-13T02:13:25.972Z,12.50
2023-05-13T02:17:32.726Z,12.40
2023-05-13T02:21:39.426Z,12.40
2023-05-13T02:25:46.061Z,12.40
2023-05-13T02:29:52.707Z,12.40
2023-05-13T02:33:59.379Z,12.30
2023-05-13T02:38:06.028Z,12.30
2023-05-13T02:42:12.760Z,12.20
2023-05-13T02:46:19.511Z,12.20
2023-05-13T02:50:26.325Z,12.10
2023-05-13T02:54:33.003Z,12.10
2023-05-13T02:58:39.640Z,12.10
2023-05-13T03:02:46.667Z,12.00
2023-05-13T03:06:53.495Z,12.00
2023-05-13T03:11:01.230Z,12.00
2023-05-13T03:15:08.544Z,11.90
2023-05-13T03:19:15.417Z,11.90
2023-05-13T03:23:22.228Z,11.90
2023-05-13T03:27:28.889Z,11.90
2023-05-13T03:31:35.930Z,11.80
2023-05-13T03:35:42.824Z,11.90
2023-05-13T03:39:49.695Z,11.80
2023-05-13T03:43:56.355Z,12.20
2023-05-13T03:48:03.058Z,11.70
2023-05-13T03:52:09.753Z,11.70
2023-05-13T03:56:16.647Z,11.60
2023-05-13T04:00:23.532Z,11.60
2023-05-13T04:04:30.418Z,11.60
2023-05-13T04:08:37.199Z,11.50
2023-05-13T04:12:43.889Z,11.50
2023-05-13T04:16:50.848Z,11.40
2023-05-13T04:20:57.615Z,11.30
2023-05-13T04:25:04.786Z,11.40
2023-05-13T04:29:11.414Z,11.60
2023-05-13T04:33:18.123Z,11.30
2023-05-13T04:37:24.946Z,11.40
2023-05-13T04:41:31.681Z,11.30
2023-05-13T04:45:39.453Z,11.40
2023-05-13T04:49:46.164Z,11.30
2023-05-13T04:53:53.386Z,11.20
2023-05-13T04:58:00.048Z,11.30
2023-05-13T05:02:06.894Z,11.30
2023-05-13T05:06:13.829Z,11.30
2023-05-13T05:10:20.803Z,11.50
2023-05-13T05:14:27.603Z,11.60
2023-05-13T05:18:36.031Z,11.70
2023-05-13T05:22:42.884Z,12.00
2023-05-13T05:26:49.594Z,12.20
2023-05-13T05:30:56.492Z,12.20
2023-05-13T05:35:03.926Z,12.20
2023-05-13T05:39:11.028Z,12.40
2023-05-13T05:43:17.749Z,12.60
2023-05-13T05:47:24.488Z,12.70
2023-05-13T05:51:31.226Z,12.60
2023-05-13T05:55:37.886Z,12.70
2023-05-13T05:59:44.534Z,12.80
2023-05-13T06:03:53.119Z,14.00
2023-05-13T06:08:01.441Z,13.30
2023-05-13T06:12:08.490Z,13.40
2023-05-13T06:16:15.241Z,13.50
2023-05-13T06:20:22.159Z,13.70
2023-05-13T06:24:29.169Z,13.90
2023-05-13T06:28:35.979Z,13.90
2023-05-13T06:32:50.386Z,13.90
2023-05-13T06:37:07.662Z,13.90
2023-05-13T06:41:14.494Z,13.60
2023-05-13T06:45:23.372Z,13.50
2023-05-13T06:49:30.426Z,13.50
2023-05-13T06:53:37.392Z,13.70
2023-05-13T06:57:46.849Z,14.10
2023-05-13T07:01:53.605Z,14.40
2023-05-13T07:06:00.276Z,14.50
2023-05-13T07:10:07.228Z,14.70
2023-05-13T07:14:13.954Z,14.90
2023-05-13T07:18:20.692Z,15.00
2023-05-13T07:22:27.965Z,15.10
2023-05-13T07:26:34.625Z,15.00
2023-05-13T07:30:41.756Z,15.10
2023-05-13T07:34:48.501Z,15.30
2023-05-13T07:38:55.320Z,15.40
2023-05-13T07:43:02.063Z,15.50
2023-05-13T07:47:08.762Z,15.60
2023-05-13T07:51:18.313Z,15.70
2023-05-13T07:55:24.963Z,15.70
2023-05-13T07:59:31.909Z,16.00
2023-05-13T08:03:38.848Z,16.10
2023-05-13T08:07:45.759Z,16.20
2023-05-13T08:11:52.453Z,16.50
2023-05-13T08:16:03.320Z,16.70
2023-05-13T08:20:11.481Z,17.00
2023-05-13T08:24:18.148Z,17.00
2023-05-13T08:28:26.469Z,17.30
2023-05-13T08:32:33.438Z,17.60
2023-05-13T08:36:40.254Z,17.80
2023-05-13T08:40:47.140Z,17.80
2023-05-13T08:44:54.108Z,17.90
2023-05-13T08:49:01.636Z,18.00
2023-05-13T08:53:09.939Z,18.30
2023-05-13T08:57:16.969Z,18.70
2023-05-13T09:01:26.800Z,18.90
2023-05-13T09:05:34.655Z,19.20
2023-05-13T09:09:44.294Z,19.30
2023-05-13T09:14:02.735Z,19.50
2023-05-13T09:18:09.623Z,19.60
2023-05-13T09:22:18.246Z,19.90
2023-05-13T09:26:29.268Z,20.10
2023-05-13T09:30:46.794Z,20.30
2023-05-13T09:34:53.703Z,20.60
2023-05-13T09:39:00.998Z,20.80
2023-05-13T09:43:08.433Z,20.80
2023-05-13T09:47:16.012Z,21.20
2023-05-13T09:51:27.295Z,21.20
2023-05-13T09:55:34.023Z,21.50
2023-05-13T09:59:41.553Z,21.60
2023-05-13T10:03:48.770Z,21.60
2023-05-13T10:07:56.663Z,21.60
2023-05-13T10:12:06.666Z,21.60
2023-05-13T10:16:14.034Z,21.60
2023-05-13T10:20:23.101Z,21.80
2023-05-13T10:24:30.581Z,22.00
2023-05-13T10:28:38.873Z,22.10
2023-05-13T10:32:45.931Z,22.40
2023-05-13T10:37:08.233Z,22.70
2023-05-13T10:41:52.764Z,23.00
2023-05-13T10:46:05.590Z,22.80
2023-05-13T10:50:27.725Z,22.90
2023-05-13T10:54:39.490Z,22.90
2023-05-13T10:58:58.165Z,23.10
2023-05-13T11:03:12.021Z,23.60
2023-05-13T11:07:18.754Z,23.80
2023-05-13T11:11:30.986Z,23.80
2023-05-13T11:15:50.296Z,23.80
2023-05-13T11:19:57.326Z,23.80
2023-05-13T11:24:06.058Z,24.00
2023-05-13T11:28:18.523Z,24.20
2023-05-13T11:32:57.014Z,24.10
2023-05-13T11:37:03.886Z,23.70
2023-05-13T11:41:11.339Z,23.40
2023-05-13T11:45:19.162Z,23.40
2023-05-13T11:49:46.581Z,23.70
2023-05-13T11:54:00.593Z,23.50
2023-05-13T11:58:07.301Z,23.60
2023-05-13T12:02:14.095Z,23.90
2023-05-13T12:06:20.955Z,23.90
2023-05-13T12:10:28.031Z,24.30
2023-05-13T12:14:34.999Z,24.30
2023-05-13T12:18:41.718Z,24.60
2023-05-13T12:22:48.593Z,24.90
2023-05-13T12:27:05.019Z,25.00
2023-05-13T12:31:17.548Z,24.80
2023-05-13T12:35:24.233Z,24.70
2023-05-13T12:39:30.895Z,25.00
2023-05-13T12:43:37.631Z,25.10
2023-05-13T12:47:51.429Z,24.60
2023-05-13T12:51:58.194Z,23.70
2023-05-13T12:56:05.308Z,23.50
2023-05-13T13:00:12.672Z,24.10
2023-05-13T13:04:19.727Z,24.50
2023-05-13T13:08:28.785Z,24.50
2023-05-13T13:12:36.609Z,24.80
2023-05-13T13:16:43.269Z,25.20
2023-05-13T13:20:51.424Z,25.40
2023-05-13T13:24:58.114Z,25.50
2023-05-13T13:29:04.931Z,25.20
2023-05-13T13:33:13.039Z,25.30
2023-05-13T13:37:19.894Z,25.80
2023-05-13T13:41:26.629Z,26.30
2023-05-13T13:45:33.859Z,26.00
2023-05-13T13:49:40.560Z,25.20
2023-05-13T13:53:47.228Z,25.10
2023-05-13T13:57:53.928Z,25.40
2023-05-13T14:02:00.817Z,25.40
2023-05-13T14:06:08.479Z,25.10
2023-05-13T14:10:15.360Z,25.60
2023-05-13T14:14:22.085Z,25.70
2023-05-13T14:18:28.748Z,24.90
2023-05-13T14:22:35.660Z,24.30
2023-05-13T14:26:42.440Z,24.30
2023-05-13T14:30:49.125Z,24.70
2023-05-13T14:34:55.773Z,24.20
2023-05-13T14:39:02.473Z,24.80
2023-05-13T14:43:09.121Z,24.80
2023-05-13T14:47:15.971Z,25.00
2023-05-13T14:51:22.701Z,25.20
2023-05-13T14:55:29.480Z,25.10
2023-05-13T14:59:36.346Z,24.20
2023-05-13T15:03:43.044Z,24.10
2023-05-13T15:07:49.735Z,24.10
2023-05-13T15:11:56.422Z,24.20
2023-05-13T15:16:03.551Z,24.10
2023-05-13T15:20:10.784Z,24.20
2023-05-13T15:24:17.449Z,24.10
2023-05-13T15:28:24.088Z,24.20
2023-05-13T15:32:30.903Z,24.50
2023-05-13T15:36:37.644Z,24.40
2023-05-13T15:40:44.350Z,24.20
2023-05-13T15:44:51.047Z,23.70
2023-05-13T15:48:58.042Z,23.60
2023-05-13T15:53:04.724Z,23.40
2023-05-13T15:57:11.388Z,23.80
2023-05-13T16:01:18.196Z,23.60
2023-05-13T16:05:24.884Z,23.20
2023-05-13T16:09:31.566Z,23.10
2023-05-13T16:13:39.426Z,23.10
2023-05-13T16:17:46.264Z,22.90
2023-05-13T16:21:52.972Z,22.80
2023-05-13T16:25:59.612Z,22.70
2023-05-13T16:30:07.482Z,22.70
2023-05-13T16:34:14.185Z,22.50
2023-05-13T16:38:20.896Z,22.50
2023-05-13T16:42:27.543Z,22.40
2023-05-13T16:46:35.822Z,22.40
2023-05-13T16:50:42.844Z,22.30
2023-05-13T16:54:50.184Z,22.20
2023-05-13T16:58:57.302Z,22.10
2023-05-13T17:03:04.182Z,24.10
2023-05-13T17:07:11.304Z,22.10
2023-05-13T17:11:18.054Z,22.00
2023-05-13T17:15:24.775Z,21.90
2023-05-13T17:19:31.439Z,21.40
2023-05-13T17:23:38.086Z,21.80
2023-05-13T17:27:44.753Z,21.80
2023-05-13T17:31:52.354Z,21.70
2023-05-13T17:35:59.249Z,21.70
2023-05-13T17:40:06.635Z,21.80
2023-05-13T17:44:13.353Z,21.60
2023-05-13T17:48:20.180Z,21.60
2023-05-13T17:52:26.933Z,21.60
2023-05-13T17:56:33.683Z,21.50
2023-05-13T18:00:40.663Z,21.50
2023-05-13T18:04:47.358Z,21.30
2023-05-13T18:08:54.284Z,21.30
2023-05-13T18:13:00.966Z,21.30
2023-05-13T18:17:07.631Z,21.20
2023-05-13T18:21:14.310Z,21.20
2023-05-13T18:25:21.272Z,21.10
2023-05-13T18:29:27.983Z,21.00
2023-05-13T18:33:34.661Z,20.90
2023-05-13T18:37:41.371Z,20.60
2023-05-13T18:41:48.889Z,20.50
2023-05-13T18:45:56.986Z,20.40
2023-05-13T18:50:04.910Z,20.10
2023-05-13T18:54:11.868Z,19.90
2023-05-13T18:58:18.836Z,19.70
2023-05-13T19:02:25.790Z,20.10
2023-05-13T19:06:34.708Z,19.80
2023-05-13T19:10:41.385Z,19.50
2023-05-13T19:14:48.125Z,19.40
2023-05-13T19:18:54.780Z,19.30
2023-05-13T19:23:01.481Z,19.30
2023-05-13T19:27:08.949Z,19.20
2023-05-13T19:31:15.666Z,19.20
2023-05-13T19:35:23.389Z,19.20
2023-05-13T19:39:30.135Z,19.10
2023-05-13T19:43:37.217Z,19.10
2023-05-13T19:47:43.893Z,19.10
2023-05-13T19:51:50.636Z,18.60
2023-05-13T19:55:57.372Z,18.90
2023-05-13T20:00:05.589Z,18.30
2023-05-13T20:04:12.356Z,18.80
2023-05-13T20:08:19.596Z,18.60
2023-05-13T20:12:26.543Z,18.60
2023-05-13T20:16:33.271Z,18.50
2023-05-13T20:20:41.607Z,18.40
2023-05-13T20:24:51.096Z,18.30
2023-05-13T20:28:58.589Z,18.20
2023-05-13T20:33:05.402Z,18.10
2023-05-13T20:37:12.143Z,18.10
2023-05-13T20:41:18.834Z,18.00
2023-05-13T20:45:25.720Z,18.00
2023-05-13T20:49:33.958Z,17.70
2023-05-13T20:53:40.670Z,17.90
2023-05-13T20:57:48.158Z,17.50
2023-05-13T21:01:55.025Z,17.40
2023-05-13T21:06:01.827Z,16.60
2023-05-13T21:10:08.986Z,17.30
2023-05-13T21:14:15.659Z,17.30
2023-05-13T21:18:22.425Z,17.10
2023-05-13T21:22:29.104Z,17.10
2023-05-13T21:26:35.972Z,17.00
2023-05-13T21:30:42.691Z,16.90
2023-05-13T21:34:49.371Z,16.80
2023-05-13T21:38:56.388Z,16.70
2023-05-13T21:43:03.029Z,16.50
2023-05-13T21:47:09.794Z,16.50
2023-05-13T21:51:16.474Z,16.40
2023-05-13T21:55:23.167Z,16.30
2023-05-13T21:59:29.833Z,16.10
2023-05-13T22:03:36.669Z,16.20
2023-05-13T22:07:43.597Z,16.10
2023-05-13T22:11:51.115Z,16.00
2023-05-13T22:15:57.920Z,16.00
2023-05-13T22:20:05.753Z,16.00
2023-05-13T22:24:12.436Z,15.90
2023-05-13T22:28:19.198Z,15.90
2023-05-13T22:32:25.960Z,15.80
2023-05-13T22:36:32.641Z,15.70
2023-05-13T22:40:39.443Z,15.60
2023-05-13T22:44:46.182Z,15.60
2023-05-13T22:48:52.848Z,15.60
2023-05-13T22:52:59.493Z,15.50
2023-05-13T22:57:06.156Z,15.50
2023-05-13T23:01:13.009Z,15.30
2023-05-13T23:05:19.696Z,15.20
2023-05-13T23:09:26.471Z,15.20
2023-05-13T23:13:33.180Z,15.20
2023-05-13T23:17:39.966Z,15.20
2023-05-13T23:21:46.710Z,15.20
2023-05-13T23:25:53.413Z,15.10
2023-05-13T23:30:00.157Z,15.10
2023-05-13T23:34:08.134Z,15.20
2023-05-13T23:38:14.766Z,15.00
2023-05-13T23:42:21.779Z,14.80
2023-05-13T23:46:28.432Z,14.70
2023-05-13T23:50:35.066Z,14.70
2023-05-13T23:54:41.865Z,14.60
2023-05-13T23:58:48.534Z,14.60
